Glenwood Springs, CO

3:20 PM MST on December 20, 2014 (GMT -0700)
Sunlight Mountain | Change Station
CLOSE
Current Station
Airport
Location: Sunlight Mountain,
Elevation: 10604 ft
Nearby Weather Stations
Active Advisory: Winter Storm Warning Active Notice: Public Information Statement

Elev 10604 ft 39.43 °N, 107.38 °W | Updated 1 minute ago

Overcast
Overcast
25 °F
Feels Like 25 °F
N
0
Wind Variable Wind from North

Today
High -- | Low -- °F
--% Chance of Precip.
Yesterday
High -- | Low -- °F
Precip. -- in
7:25 AM 4:48 PM
Waning Crescent, 2% visible
Pressure 30.09 in
Visibility 3.0 miles
Clouds Scattered Clouds 600 ft
Scattered Clouds 1900 ft
Overcast 2500 ft
Dew Point 23 °F
Humidity 93%
Rainfall 0.00 in
Snow Depth Not available.
UV 0 out of 12
Pollen .10 out of 12
Air Quality Not available.
Flu Activity Not available.
METAR K5SM 202219Z AUTO 00000KT 3SM -SN SCT006 SCT019 OVC025 M04/M05 A3009 RMK AO2

More Conditions Fewer Conditions

Pressure 30.09 in
Visibility 3.0 miles
Clouds Scattered Clouds 600 ft
Scattered Clouds 1900 ft
Overcast 2500 ft
Dew Point 23 °F
Humidity 93%
Rainfall 0.00 in
Snow Depth Not available.
UV 0 out of 12
Pollen .10 out of 12
Air Quality Not available.
Flu Activity Not available.
METAR K5SM 202219Z AUTO 00000KT 3SM -SN SCT006 SCT019 OVC025 M04/M05 A3009 RMK AO2

More Conditions Fewer Conditions

10-Day Weather Forecast

Almanac

Astronomy

Dec. 20, 2014 Rise Set
Actual Time
Civil Twilight
Nautical Twilight
Astronomical Twilight
Moon
Length of Visible Light
Length of Day
Tomorrow will be .
, % of the Moon is Illuminated

Today's Extremes

State Highs State Lows

Community

WunderPhotos

Upload Photos

1,779,291 photos uploaded!

WunderBlogs® & News

Nearby

Air Quality

  Air Quality AQ Index Pollutant
Not available.

Snow Depth

Station Depth Elevation

Earthquake Activity

City Distance Mag. Time & Date
Minimum magnitude displayed is 2.5.

Coastal Water Temperatures

Place Temperature

Nearby Weather Stations